Search for airport 
image banner adimage banner ad
image banner ad

EVRA - Riga

Located in Riga, Latvia

ICAO - EVRA, IATA - RIX

Data provided by Airmate  

General information

Coordinates: N56°55'25" E23°58'16"
Elevation is 37 feet MSL.
Magnetic variation is 7° East
View others Airports in Riga (city)

Operational data

Open for public use
Current time UTC:
Current local time:
Weather
METAR: EVRA 280220Z 17005KT 9999 FEW042 06/06 Q1010 R18/290195 NOSIG
TAF: TAF EVRA 272300Z 2800/2824 24007KT 9999 BKN010 TEMPO 2800/2802 4000 SHRA BKN007 SCT010CB BECMG 2802/2803 BKN015 TEMPO 2802/2806 3000 BR BKN005 BECMG 2806/2808 17010KT TEMPO 2821/2824 SCT012CB
View NOTAMs / SUP AIP / TFR affecting this airport [VIEW]
Communications frequencies: [VIEW]

Runways:

RWY identifierQFULength (ft)Width (ft)SurfaceLDA (ft)
18185°10499148CONC+ASPH10499
3610499148CONC+ASPH10499

Airport contact information

Address: Riga Latvia

Other aviation service providers

Flight schools

Air Baltic

Air Baltic
training@airbaltictraining.com+37167668512
+37126393535

Airtraining Group

Airtraining Group
ht@airtraining.eu+37125474744

Bcat

Bcat

Eriva

Eriva
info@eriva.lv+37126541441

Swan Fly

Swan Fly

Repair station

Smart Lynx

Smart Lynx

Satellite view of EVRA